Time;durP1;ratioP1;P1;durP2;ratioP2;P2;SDS_P1;SDS_P2;PMS_P1;PMS_P2;Temp;Humidity;BMP_temperature;BMP_pressure;BME280_temperature;BME280_humidity;BME280_pressure;Samples;Min_cycle;Max_cycle;Signal;HPM_P1;HPM_P2
2023/02/23 00:02:17;;;;;;;26.25;13.25;;;;;;;5.68;86.65;100663.78;4959020;28;20055;-63
2023/02/23 00:04:44;;;;;;;30.73;13.02;;;;;;;5.68;86.92;100662.03;4959226;28;20053;-63
2023/02/23 00:07:12;;;;;;;31.13;12.45;;;;;;;5.69;87.23;100671.56;4969078;28;20137;-63
2023/02/23 00:09:39;;;;;;;34.10;14.02;;;;;;;5.71;86.93;100663.66;4966715;28;20058;-64
2023/02/23 00:12:06;;;;;;;26.83;13.13;;;;;;;5.67;86.67;100656.84;4965972;28;20529;-64
2023/02/23 00:14:36;;;;;;;34.70;14.45;;;;;;;5.67;86.64;100657.69;4963560;28;20050;-63
2023/02/23 00:17:09;;;;;;;30.15;13.27;;;;;;;5.66;86.70;100650.78;4961045;28;20068;-64
2023/02/23 00:19:37;;;;;;;28.25;13.43;;;;;;;5.66;86.89;100656.00;4963372;28;20059;-64
2023/02/23 00:22:05;;;;;;;39.75;15.70;;;;;;;5.65;87.26;100650.84;4970829;28;20051;-64
2023/02/23 00:24:36;;;;;;;34.05;14.48;;;;;;;5.66;86.13;100656.00;4968821;28;20051;-65
2023/02/23 00:27:05;;;;;;;28.85;13.90;;;;;;;5.64;86.91;100647.38;4965446;28;20057;-63
2023/02/23 00:29:38;;;;;;;33.03;13.48;;;;;;;5.62;87.17;100654.41;4966121;28;20523;-62
2023/02/23 00:32:05;;;;;;;32.72;14.65;;;;;;;5.61;87.35;100646.63;4962525;28;20138;-64
2023/02/23 00:34:34;;;;;;;29.65;13.55;;;;;;;5.65;86.78;100646.47;4970545;28;20055;-63
2023/02/23 00:37:01;;;;;;;35.85;14.07;;;;;;;5.61;86.52;100649.25;4967068;28;20051;-64
2023/02/23 00:39:28;;;;;;;30.33;13.48;;;;;;;5.59;86.95;100647.56;4961492;28;20050;-65
2023/02/23 00:42:01;;;;;;;29.85;13.50;;;;;;;5.62;87.14;100654.41;4962647;28;20138;-64
2023/02/23 00:44:28;;;;;;;32.92;15.23;;;;;;;5.65;86.68;100650.84;4968236;28;20051;-63
2023/02/23 00:46:55;;;;;;;29.48;14.20;;;;;;;5.68;86.87;100654.19;4967576;28;20050;-62
2023/02/23 00:49:23;;;;;;;29.27;14.50;;;;;;;5.67;87.03;100649.84;4967235;28;20592;-65
2023/02/23 00:51:56;;;;;;;31.15;14.23;;;;;;;5.65;86.58;100641.25;4965004;28;20051;-65
2023/02/23 00:54:23;;;;;;;37.38;15.40;;;;;;;5.64;87.27;100651.75;4980656;28;20069;-64
2023/02/23 00:56:51;;;;;;;35.20;14.50;;;;;;;5.63;87.20;100643.06;4967538;28;20133;-64
2023/02/23 00:59:18;;;;;;;37.55;14.15;;;;;;;5.61;86.82;100637.03;4967461;28;20051;-64
2023/02/23 01:01:46;;;;;;;36.58;14.88;;;;;;;5.55;87.24;100638.13;4963324;28;20072;-64
2023/02/23 01:04:13;;;;;;;32.67;14.82;;;;;;;5.59;86.96;100644.94;4961063;28;20165;-65
2023/02/23 01:06:41;;;;;;;31.77;14.45;;;;;;;5.59;87.67;100638.88;4963313;28;20077;-63
2023/02/23 01:09:12;;;;;;;34.90;14.40;;;;;;;5.59;87.09;100636.25;4969453;28;20556;-62
2023/02/23 01:11:40;;;;;;;29.63;14.82;;;;;;;5.55;87.34;100637.28;4964701;28;20523;-64
2023/02/23 01:14:09;;;;;;;33.15;14.35;;;;;;;5.52;87.50;100627.78;4960332;28;20133;-65
2023/02/23 01:16:37;;;;;;;28.33;15.18;;;;;;;5.50;87.86;100636.63;4966148;28;20051;-64
2023/02/23 01:19:04;;;;;;;41.47;14.95;;;;;;;5.48;87.94;100636.66;4966973;28;20111;-64
2023/02/23 01:21:37;;;;;;;29.58;14.52;;;;;;;5.43;87.62;100637.75;4968460;28;20436;-63
2023/02/23 01:24:05;;;;;;;30.92;14.88;;;;;;;5.44;87.93;100634.22;4967677;28;20138;-63
2023/02/23 01:26:34;;;;;;;31.08;15.10;;;;;;;5.47;87.58;100629.72;4963149;28;20057;-64
2023/02/23 01:29:09;;;;;;;30.25;14.40;;;;;;;5.51;87.39;100641.75;4972779;28;20607;-64
2023/02/23 01:31:38;;;;;;;36.20;15.10;;;;;;;5.53;87.58;100634.72;4964327;28;20411;-63
2023/02/23 01:34:06;;;;;;;32.67;14.85;;;;;;;5.52;87.49;100633.00;4964202;28;22649;-65
2023/02/23 01:36:36;;;;;;;31.65;14.75;;;;;;;5.49;87.82;100624.44;4972196;28;20051;-64
2023/02/23 01:39:15;;;;;;;36.13;15.20;;;;;;;5.49;87.73;100617.50;4962978;28;20153;-64
2023/02/23 01:41:45;;;;;;;37.63;15.73;;;;;;;5.44;87.19;100619.41;4964317;28;20059;-63
2023/02/23 01:44:12;;;;;;;31.30;14.02;;;;;;;5.40;87.36;100620.41;4965101;28;20591;-63
2023/02/23 01:46:42;;;;;;;30.88;14.63;;;;;;;5.41;87.07;100624.75;4964001;28;20515;-63
2023/02/23 01:49:14;;;;;;;33.90;15.57;;;;;;;5.42;87.04;100612.53;4960027;28;20138;-63
2023/02/23 01:51:55;;;;;;;35.58;15.60;;;;;;;5.45;87.20;100615.03;4972705;28;20078;-64
2023/02/23 01:54:27;;;;;;;32.47;15.30;;;;;;;5.43;87.24;100614.25;4964990;28;20055;-63
2023/02/23 01:56:57;;;;;;;35.08;15.10;;;;;;;5.43;87.43;100616.84;4959339;28;20047;-64
2023/02/23 01:59:32;;;;;;;35.95;16.52;;;;;;;5.41;87.32;100614.31;4956010;28;20134;-63
2023/02/23 02:02:00;;;;;;;33.10;15.30;;;;;;;5.38;87.63;100605.72;4966526;28;20062;-64
2023/02/23 02:04:27;;;;;;;31.80;15.20;;;;;;;5.36;87.80;100603.19;4962510;28;20057;-63
2023/02/23 02:06:55;;;;;;;34.30;15.80;;;;;;;5.37;87.72;100602.28;4965942;28;20141;-64
2023/02/23 02:09:27;;;;;;;30.92;15.40;;;;;;;5.39;87.17;100599.59;4967598;28;20073;-64
2023/02/23 02:11:54;;;;;;;34.95;15.82;;;;;;;5.30;87.45;100603.41;4965700;28;20154;-63
2023/02/23 02:14:26;;;;;;;31.02;14.93;;;;;;;5.26;87.77;100596.59;4963760;28;20051;-63
2023/02/23 02:17:16;;;;;;;36.10;16.38;;;;;;;5.29;87.46;100588.66;4969828;28;20056;-63
2023/02/23 02:20:30;;;;;;;29.13;15.00;;;;;;;5.24;87.81;100590.59;4963297;28;20464;-64
2023/02/23 02:23:16;;;;;;;32.15;16.35;;;;;;;5.22;88.40;100584.56;4966953;28;20150;-62
2023/02/23 02:26:04;;;;;;;34.53;16.23;;;;;;;5.21;88.31;100580.25;4965908;28;20129;-64
2023/02/23 02:28:55;;;;;;;41.80;16.80;;;;;;;5.11;87.67;100579.75;4962661;28;20138;-64
2023/02/23 02:31:41;;;;;;;33.08;16.67;;;;;;;5.04;89.16;100573.06;4974563;28;20105;-64
2023/02/23 02:34:56;;;;;;;34.15;16.95;;;;;;;5.07;88.83;100567.72;4970278;28;20133;-63
2023/02/23 02:37:32;;;;;;;33.88;17.73;;;;;;;5.08;88.59;100572.88;4982937;28;20119;-63
2023/02/23 02:40:26;;;;;;;34.65;16.58;;;;;;;5.13;88.49;100579.69;4968042;28;20067;-64
2023/02/23 02:42:58;;;;;;;34.15;16.08;;;;;;;5.14;88.61;100579.66;4961926;28;20049;-66
2023/02/23 02:45:43;;;;;;;30.85;16.25;;;;;;;5.18;88.35;100569.94;4967574;28;20050;-65
2023/02/23 02:48:40;;;;;;;33.58;15.52;;;;;;;5.18;89.05;100570.81;4966448;28;20061;-63
2023/02/23 02:51:20;;;;;;;39.40;16.73;;;;;;;5.16;88.42;100574.38;4980047;28;20077;-63
2023/02/23 02:54:09;;;;;;;33.63;15.73;;;;;;;5.15;88.61;100570.06;4964835;28;20138;-63
2023/02/23 02:56:39;;;;;;;33.75;14.88;;;;;;;5.13;88.32;100570.09;4980989;28;20046;-63
2023/02/23 04:19:30;;;;;;;32.90;15.18;;;;;;;4.74;89.81;100515.91;4953269;28;20191;-64
2023/02/23 04:21:57;;;;;;;42.53;17.00;;;;;;;4.79;89.75;100521.78;4970710;28;20138;-64
2023/02/23 04:24:24;;;;;;;33.15;16.50;;;;;;;4.74;89.49;100531.53;4970546;28;20057;-64
2023/02/23 04:26:52;;;;;;;37.47;16.77;;;;;;;4.72;88.96;100520.31;4968496;28;20184;-65
2023/02/23 04:29:19;;;;;;;40.17;16.55;;;;;;;4.72;89.62;100525.53;4961842;28;20139;-63
2023/02/23 04:31:47;;;;;;;38.72;16.95;;;;;;;4.74;89.71;100533.31;4969456;28;20557;-64
2023/02/23 04:34:21;;;;;;;36.08;16.75;;;;;;;4.77;89.57;100527.97;5065688;28;20627;-65
2023/02/23 04:36:50;;;;;;;31.58;16.42;;;;;;;4.77;89.40;100528.84;5046299;28;20439;-62
2023/02/23 04:39:17;;;;;;;33.20;15.98;;;;;;;4.76;89.22;100521.91;5047380;28;20109;-64
2023/02/23 04:41:44;;;;;;;38.85;16.35;;;;;;;4.75;88.97;100517.59;5052908;28;20140;-64
2023/02/23 04:44:12;;;;;;;35.85;17.85;;;;;;;4.69;89.29;100509.16;5046016;28;20544;-63
2023/02/23 04:46:39;;;;;;;40.60;16.17;;;;;;;4.60;89.72;100510.34;5047924;28;20442;-64
2023/02/23 04:49:06;;;;;;;40.75;17.70;;;;;;;4.61;90.05;100509.44;5053799;28;20391;-62
2023/02/23 04:51:35;;;;;;;37.72;16.33;;;;;;;4.59;89.98;100508.63;5042888;28;20157;-62
2023/02/23 04:54:03;;;;;;;27.02;14.70;;;;;;;4.55;90.12;100501.84;5046826;28;20042;-63
2023/02/23 04:56:31;;;;;;;38.60;17.23;;;;;;;4.57;90.30;100498.25;5045047;28;20051;-62
2023/02/23 04:58:59;;;;;;;41.60;16.35;;;;;;;4.46;90.35;100503.03;5043031;28;20057;-65
2023/02/23 05:01:27;;;;;;;30.92;15.85;;;;;;;4.45;90.25;100505.66;5040751;28;20124;-62
2023/02/23 05:03:54;;;;;;;30.95;14.82;;;;;;;4.48;90.34;100509.00;5026117;28;20382;-63
2023/02/23 05:06:22;;;;;;;33.20;17.20;;;;;;;4.52;90.50;100501.94;5027534;28;20048;-65
2023/02/23 05:08:49;;;;;;;35.83;15.82;;;;;;;4.54;90.12;100502.72;5040829;28;20053;-63
2023/02/23 05:11:16;;;;;;;31.75;15.65;;;;;;;4.51;90.54;100497.63;5038503;28;20065;-63
2023/02/23 05:13:44;;;;;;;36.30;16.88;;;;;;;4.50;90.09;100495.91;5030536;28;20177;-62
2023/02/23 05:16:11;;;;;;;30.98;16.45;;;;;;;4.49;89.49;100494.22;5036420;28;20110;-63
2023/02/23 05:18:38;;;;;;;39.55;17.52;;;;;;;4.47;89.96;100499.50;5040730;28;20517;-63
2023/02/23 05:21:07;;;;;;;37.58;17.02;;;;;;;4.36;89.82;100496.41;5042694;28;20362;-64
2023/02/23 05:23:35;;;;;;;39.53;17.00;;;;;;;4.35;89.86;100499.06;5039940;28;20053;-62
2023/02/23 05:26:08;;;;;;;35.50;15.38;;;;;;;4.36;90.63;100496.41;5036184;28;20136;-64
2023/02/23 05:28:36;;;;;;;38.72;16.70;;;;;;;4.37;90.25;100492.91;5057317;28;20132;-62
2023/02/23 05:31:03;;;;;;;35.70;15.75;;;;;;;4.41;89.70;100494.47;5043584;28;20077;-63
2023/02/23 05:33:31;;;;;;;35.95;15.10;;;;;;;4.42;89.81;100495.38;5042520;28;20080;-64
2023/02/23 05:35:59;;;;;;;30.20;16.00;;;;;;;4.42;90.09;100495.38;5042078;28;20113;-64
2023/02/23 05:38:26;;;;;;;35.40;16.35;;;;;;;4.41;89.73;100496.25;5039318;28;20087;-65
2023/02/23 05:40:53;;;;;;;31.05;15.00;;;;;;;4.39;90.13;100500.66;5038377;28;20049;-65
2023/02/23 05:43:20;;;;;;;33.15;16.83;;;;;;;4.36;89.48;100499.00;5040484;28;20132;-64
2023/02/23 05:45:48;;;;;;;38.30;17.25;;;;;;;4.32;90.31;100498.28;5026311;28;20137;-66
2023/02/23 05:48:15;;;;;;;37.40;17.30;;;;;;;4.32;90.36;100506.13;5025909;28;20052;-64
2023/02/23 05:50:42;;;;;;;37.45;16.63;;;;;;;4.28;89.84;100504.50;5018642;28;20100;-64
2023/02/23 05:53:10;;;;;;;34.13;16.38;;;;;;;4.28;90.01;100508.88;5025569;28;20077;-64
2023/02/23 05:55:37;;;;;;;29.27;15.57;;;;;;;4.26;90.47;100510.66;5020331;28;20144;-65
2023/02/23 05:58:04;;;;;;;32.05;15.40;;;;;;;4.25;89.94;100522.00;5027123;28;20049;-65
2023/02/23 06:00:31;;;;;;;34.25;16.38;;;;;;;4.27;90.09;100517.56;5026316;28;20053;-65
2023/02/23 06:02:58;;;;;;;41.38;17.27;;;;;;;4.26;88.91;100521.94;5020207;28;20128;-65
2023/02/23 06:05:26;;;;;;;37.45;16.15;;;;;;;4.22;89.15;100520.34;5020544;28;20054;-66
2023/02/23 06:07:53;;;;;;;34.13;15.77;;;;;;;4.20;89.40;100522.16;5028203;28;20398;-67
2023/02/23 06:10:20;;;;;;;33.20;16.77;;;;;;;4.12;89.72;100529.38;5026813;28;20040;-65
2023/02/23 06:12:47;;;;;;;33.53;16.83;;;;;;;4.09;89.69;100521.66;5026217;28;20136;-64
2023/02/23 06:15:14;;;;;;;37.15;16.10;;;;;;;4.10;89.13;100523.38;5012744;28;20140;-64
2023/02/23 06:17:42;;;;;;;32.42;17.08;;;;;;;4.09;89.57;100526.03;5012490;28;20171;-64
2023/02/23 06:20:09;;;;;;;36.33;16.33;;;;;;;4.05;89.77;100522.66;5009654;28;20064;-65
2023/02/23 06:22:36;;;;;;;32.75;16.08;;;;;;;4.04;90.55;100524.41;5021741;28;20494;-64
2023/02/23 06:25:05;;;;;;;32.33;16.25;;;;;;;4.04;90.40;100526.19;5020428;28;20073;-64
2023/02/23 06:27:32;;;;;;;30.88;15.65;;;;;;;4.01;90.05;100527.16;5018691;28;20053;-64
2023/02/23 06:29:59;;;;;;;29.48;15.23;;;;;;;4.00;89.99;100525.44;5012763;28;20905;-64
2023/02/23 06:32:26;;;;;;;35.55;16.27;;;;;;;3.99;89.32;100528.94;5021223;28;20046;-65
2023/02/23 06:34:53;;;;;;;30.33;15.30;;;;;;;3.90;89.70;100534.44;5027948;28;20041;-66
2023/02/23 06:37:20;;;;;;;33.70;17.52;;;;;;;3.90;90.10;100531.84;5032325;28;20402;-64
2023/02/23 06:39:49;;;;;;;32.42;16.20;;;;;;;3.92;89.86;100532.66;5025137;28;20052;-66
2023/02/23 06:42:16;;;;;;;34.85;15.95;;;;;;;3.97;90.22;100542.94;5025203;28;20080;-63
2023/02/23 06:44:43;;;;;;;37.95;16.60;;;;;;;3.99;90.52;100543.72;5031928;28;20053;-63
2023/02/23 06:47:10;;;;;;;36.75;16.10;;;;;;;4.02;90.44;100541.03;5020019;28;20049;-64
2023/02/23 06:49:39;;;;;;;37.50;16.25;;;;;;;4.00;90.74;100543.66;5014041;28;20058;-64
2023/02/23 06:52:07;;;;;;;31.85;15.98;;;;;;;4.01;90.61;100545.38;5024190;28;20045;-64
2023/02/23 06:54:36;;;;;;;37.75;17.20;;;;;;;4.01;89.97;100548.00;5023596;28;20538;-65
2023/02/23 06:57:03;;;;;;;33.92;16.77;;;;;;;4.03;89.96;100540.97;5021714;28;20045;-63
2023/02/23 06:59:31;;;;;;;40.38;17.77;;;;;;;4.04;90.51;100539.22;5030768;28;20050;-64
2023/02/23 07:01:58;;;;;;;32.53;16.98;;;;;;;4.03;90.15;100546.16;5024937;28;20041;-64
2023/02/23 07:04:25;;;;;;;33.00;16.73;;;;;;;4.01;90.81;100541.94;5022316;28;20132;-63
2023/02/23 07:06:53;;;;;;;36.95;18.00;;;;;;;4.04;90.66;100547.03;5025022;28;20368;-62
2023/02/23 07:09:20;;;;;;;38.25;17.65;;;;;;;4.09;90.69;100545.09;5014164;28;20049;-64
2023/02/23 07:11:47;;;;;;;41.03;18.42;;;;;;;4.13;89.99;100538.06;5026214;28;20049;-63
2023/02/23 07:14:14;;;;;;;31.80;17.98;;;;;;;4.15;89.85;100541.47;5024612;28;20153;-64
2023/02/23 07:16:53;;;;;;;35.67;17.88;;;;;;;4.16;90.38;100540.56;5015657;28;20448;-63
2023/02/23 07:19:21;;;;;;;29.15;16.45;;;;;;;4.19;89.89;100545.69;5018966;28;20509;-62
2023/02/23 07:21:48;;;;;;;35.35;17.48;;;;;;;4.21;90.25;100543.84;5020067;28;20060;-64
2023/02/23 07:24:15;;;;;;;33.70;16.33;;;;;;;4.22;90.03;100543.78;5018989;28;20140;-65
2023/02/23 07:26:46;;;;;;;36.42;18.25;;;;;;;4.26;89.68;100544.53;5019724;28;20058;-64
2023/02/23 07:29:13;;;;;;;39.33;17.45;;;;;;;4.28;89.47;100545.38;5019570;28;20057;-65
2023/02/23 07:31:40;;;;;;;36.03;17.75;;;;;;;4.30;89.53;100540.94;5019858;28;20056;-63
2023/02/23 07:34:08;;;;;;;40.22;17.73;;;;;;;4.32;90.28;100544.31;5022503;28;20049;-64
2023/02/23 07:36:35;;;;;;;36.15;17.60;;;;;;;4.32;90.21;100540.00;5016094;28;20095;-64
2023/02/23 07:39:03;;;;;;;37.25;18.20;;;;;;;4.35;89.60;100536.41;5031427;28;20060;-65
2023/02/23 07:41:31;;;;;;;32.92;16.92;;;;;;;4.37;90.52;100539.84;5026802;28;20478;-64
2023/02/23 07:43:58;;;;;;;45.80;18.08;;;;;;;4.38;90.25;100533.72;5020801;28;20497;-64
2023/02/23 07:46:25;;;;;;;37.75;18.27;;;;;;;4.42;89.96;100531.84;5040754;28;20156;-64
2023/02/23 07:48:53;;;;;;;36.00;17.13;;;;;;;4.44;89.27;100528.28;5035995;28;20137;-64
2023/02/23 07:51:20;;;;;;;33.63;17.60;;;;;;;4.48;89.67;100534.22;5027846;28;20575;-65
2023/02/23 07:53:48;;;;;;;35.63;17.00;;;;;;;4.52;89.75;100531.47;5026568;28;20045;-64
2023/02/23 07:56:15;;;;;;;34.13;16.70;;;;;;;4.54;89.35;100532.25;5023137;28;20049;-64
2023/02/23 07:58:43;;;;;;;31.65;16.75;;;;;;;4.54;89.35;100527.03;5030251;28;20616;-64
2023/02/23 08:01:11;;;;;;;35.22;17.75;;;;;;;4.57;88.94;100537.34;5019118;28;20439;-64
2023/02/23 08:03:38;;;;;;;35.58;16.02;;;;;;;4.59;89.01;100529.47;5022396;28;20084;-64
2023/02/23 08:06:06;;;;;;;34.42;17.88;;;;;;;4.62;89.78;100533.75;5018884;28;20054;-65
2023/02/23 08:08:34;;;;;;;40.92;18.15;;;;;;;4.61;89.34;100532.91;5023103;28;20045;-63
2023/02/23 08:11:02;;;;;;;33.10;17.08;;;;;;;4.60;89.20;100530.34;5015859;28;20056;-63
2023/02/23 08:13:30;;;;;;;38.78;19.35;;;;;;;4.61;89.12;100529.44;5019927;28;20529;-65
2023/02/23 08:15:58;;;;;;;44.15;18.73;;;;;;;4.61;89.83;100527.69;5023974;28;20498;-66
2023/02/23 08:18:26;;;;;;;41.25;17.45;;;;;;;4.64;89.63;100529.31;5017866;28;20149;-64
2023/02/23 08:21:00;;;;;;;34.25;17.33;;;;;;;4.67;89.16;100526.59;5017553;28;20686;-65
2023/02/23 08:23:32;;;;;;;36.33;17.02;;;;;;;4.69;89.52;100530.03;5025770;28;20140;-65
2023/02/23 08:26:00;;;;;;;38.05;18.35;;;;;;;4.66;89.77;100532.72;5015873;28;20132;-63
2023/02/23 08:28:29;;;;;;;35.15;17.42;;;;;;;4.70;89.74;100523.91;5028830;28;20054;-64
2023/02/23 08:30:58;;;;;;;34.38;17.58;;;;;;;4.73;89.92;100529.00;5022890;28;20047;-65
2023/02/23 08:33:25;;;;;;;33.60;16.75;;;;;;;4.73;89.62;100529.84;5028504;28;20055;-65
2023/02/23 08:35:52;;;;;;;37.78;18.38;;;;;;;4.77;89.88;100525.34;5025198;28;20049;-65
2023/02/23 08:38:20;;;;;;;43.10;18.58;;;;;;;4.80;89.41;100525.25;5022424;28;20115;-65
2023/02/23 08:40:47;;;;;;;38.08;19.17;;;;;;;4.81;89.29;100533.00;5030323;28;20589;-64
2023/02/23 08:43:14;;;;;;;34.20;19.00;;;;;;;4.86;89.08;100532.00;5039226;28;20055;-64
2023/02/23 08:45:42;;;;;;;36.38;17.60;;;;;;;4.88;89.55;100535.41;5027497;28;20522;-65
2023/02/23 08:48:09;;;;;;;39.53;18.00;;;;;;;4.88;89.42;100533.66;5030368;28;20588;-65
2023/02/23 08:50:36;;;;;;;34.80;17.75;;;;;;;4.88;89.87;100530.19;5032913;28;20544;-65
2023/02/23 08:53:04;;;;;;;32.83;18.08;;;;;;;4.88;89.76;100528.44;5026441;28;20644;-65
2023/02/23 08:55:34;;;;;;;35.95;17.55;;;;;;;4.94;89.65;100533.41;5031047;28;20053;-65
2023/02/23 08:58:01;;;;;;;41.55;19.02;;;;;;;4.98;89.45;100536.75;5031650;28;20055;-63
2023/02/23 09:00:30;;;;;;;40.70;17.90;;;;;;;5.02;89.33;100533.97;5032982;28;20050;-65
2023/02/23 09:02:57;;;;;;;39.30;18.27;;;;;;;5.06;89.35;100532.13;5044180;28;20088;-65
2023/02/23 09:05:24;;;;;;;38.13;19.23;;;;;;;5.05;89.24;100533.88;5034846;28;20053;-65
2023/02/23 09:07:51;;;;;;;41.33;19.10;;;;;;;5.09;89.45;100534.63;5026497;28;20069;-65
2023/02/23 09:10:19;;;;;;;37.20;18.70;;;;;;;5.15;89.72;100536.13;5020786;28;20061;-65
2023/02/23 09:12:46;;;;;;;36.40;18.27;;;;;;;5.20;89.79;100536.81;5032967;28;20346;-64
2023/02/23 09:15:13;;;;;;;39.72;18.23;;;;;;;5.22;89.27;100530.63;5028362;28;20312;-65
2023/02/23 09:17:43;;;;;;;41.08;19.55;;;;;;;5.20;89.27;100529.81;5034000;28;20152;-65
2023/02/23 09:20:12;;;;;;;45.17;17.50;;;;;;;5.23;89.75;100534.94;5034260;28;20060;-65
2023/02/23 09:22:47;;;;;;;41.60;19.33;;;;;;;5.30;89.53;100535.53;5032258;28;20125;-65
2023/02/23 09:25:17;;;;;;;37.78;19.15;;;;;;;5.36;89.54;100537.94;5034751;28;20483;-65
2023/02/23 09:27:45;;;;;;;45.08;19.35;;;;;;;5.42;88.99;100535.06;5034221;28;20151;-66
2023/02/23 09:30:16;;;;;;;43.20;19.33;;;;;;;5.45;89.52;100534.09;5037016;28;20063;-64
2023/02/23 09:32:44;;;;;;;41.10;18.95;;;;;;;5.49;89.32;100535.66;5035614;28;20129;-63
2023/02/23 09:35:13;;;;;;;37.47;20.05;;;;;;;5.55;89.17;100532.84;5028307;28;20156;-65
2023/02/23 09:37:40;;;;;;;37.60;19.42;;;;;;;5.62;89.09;100530.81;5039029;28;20053;-65
2023/02/23 09:40:09;;;;;;;51.72;20.75;;;;;;;5.64;88.76;100537.69;5034650;28;20133;-63
2023/02/23 09:42:41;;;;;;;33.17;17.65;;;;;;;5.67;88.92;100531.47;5039707;28;20049;-64
2023/02/23 09:45:17;;;;;;;38.55;19.00;;;;;;;5.76;89.09;100541.56;5029643;28;20422;-64
2023/02/23 09:48:03;;;;;;;45.03;19.15;;;;;;;5.84;88.76;100536.88;5035069;28;20502;-66
2023/02/23 09:50:31;;;;;;;34.03;18.98;;;;;;;5.84;88.90;100531.66;5031994;28;20064;-65
2023/02/23 09:53:06;;;;;;;37.42;21.08;;;;;;;5.92;88.85;100531.38;5028848;28;20049;-65
2023/02/23 09:55:34;;;;;;;44.28;20.30;;;;;;;5.97;88.62;100527.66;5025843;28;20072;-65
2023/02/23 09:58:06;;;;;;;43.67;21.10;;;;;;;5.98;89.21;100524.13;5030011;28;20053;-65
2023/02/23 10:00:40;;;;;;;50.65;20.40;;;;;;;6.07;89.34;100525.50;5034830;28;20054;-63
2023/02/23 10:03:16;;;;;;;37.78;19.85;;;;;;;6.17;89.38;100525.97;5034012;28;20052;-65
2023/02/23 10:05:45;;;;;;;;;;;;;;;6.25;89.71;100531.72;5018363;28;20067;-64
2023/02/23 10:08:20;;;;;;;43.85;21.40;;;;;;;6.33;89.26;100532.25;5023394;28;19921;-62
2023/02/23 10:11:01;;;;;;;41.80;21.17;;;;;;;6.44;89.08;100526.53;5039066;28;20143;-60
2023/02/23 10:13:43;;;;;;;33.67;18.70;;;;;;;6.54;89.31;100526.09;5025079;28;20405;-62
2023/02/23 10:16:21;;;;;;;40.97;19.52;;;;;;;6.68;89.28;100524.66;5030827;28;20152;-63
2023/02/23 10:18:59;;;;;;;35.45;20.27;;;;;;;6.82;88.69;100527.50;5022656;28;20136;-63
2023/02/23 10:21:37;;;;;;;40.60;20.85;;;;;;;6.88;88.52;100523.75;5032407;28;20075;-64
2023/02/23 10:24:10;;;;;;;37.17;20.15;;;;;;;6.93;89.50;100525.22;5032928;28;20648;-64
2023/02/23 10:26:45;;;;;;;39.70;20.33;;;;;;;7.08;89.98;100516.69;5029295;28;20140;-63
2023/02/23 10:29:36;;;;;;;37.30;21.58;;;;;;;7.23;89.06;100519.50;5031160;28;20530;-63
2023/02/23 10:32:23;;;;;;;39.67;21.08;;;;;;;7.29;88.73;100517.44;5016766;28;20237;-62
2023/02/23 10:34:53;;;;;;;31.92;18.92;;;;;;;7.40;88.50;100516.09;5020441;28;20060;-63
2023/02/23 10:37:20;;;;;;;47.08;20.27;;;;;;;7.52;88.36;100520.72;5032883;28;20045;-63
2023/02/23 10:39:50;;;;;;;35.13;19.30;;;;;;;7.63;88.59;100522.84;5037892;28;20141;-64
2023/02/23 10:42:28;;;;;;;35.20;20.38;;;;;;;7.77;88.60;100515.16;5031921;28;20049;-63
2023/02/23 10:44:57;;;;;;;40.13;20.85;;;;;;;7.83;88.18;100523.59;5020876;28;20049;-62
2023/02/23 10:47:27;;;;;;;40.17;21.13;;;;;;;7.86;87.09;100515.56;5029999;28;20072;-63
2023/02/23 10:49:56;;;;;;;38.00;21.05;;;;;;;7.93;87.53;100516.13;5026220;28;20051;-63
2023/02/23 10:52:29;;;;;;;39.72;20.67;;;;;;;7.99;87.29;100510.56;5028457;28;20493;-63
2023/02/23 10:54:59;;;;;;;40.25;19.95;;;;;;;8.20;87.54;100511.25;5026786;28;20069;-63
2023/02/23 10:57:29;;;;;;;39.35;20.88;;;;;;;8.36;86.82;100506.94;5020234;28;20092;-63
2023/02/23 11:00:12;;;;;;;45.50;21.02;;;;;;;8.50;84.97;100511.47;5007358;28;20057;-63
2023/02/23 11:02:40;;;;;;;34.22;20.23;;;;;;;8.55;85.68;100506.81;5025476;28;20067;-62
2023/02/23 11:05:33;;;;;;;42.55;21.70;;;;;;;8.60;84.92;100499.59;5020982;28;20061;-63
2023/02/23 11:08:17;;;;;;;37.58;22.77;;;;;;;8.66;84.93;100502.81;5025546;28;20057;-63
2023/02/23 11:11:14;;;;;;;41.08;20.58;;;;;;;8.83;85.19;100506.25;5035983;28;20552;-64
2023/02/23 11:13:46;;;;;;;34.15;21.42;;;;;;;8.93;84.62;100497.88;5031997;28;20136;-63
2023/02/23 11:16:15;;;;;;;39.42;20.35;;;;;;;9.02;84.76;100498.22;5031249;28;20220;-62
2023/02/23 11:19:03;;;;;;;41.00;21.23;;;;;;;9.21;84.89;100500.66;5028630;28;20051;-64
2023/02/23 11:21:37;;;;;;;41.25;20.42;;;;;;;9.34;83.97;100504.31;5027270;28;20664;-62
2023/02/23 11:24:21;;;;;;;42.28;21.35;;;;;;;9.33;82.35;100501.78;5034936;28;20524;-62
2023/02/23 11:26:51;;;;;;;44.75;22.88;;;;;;;9.30;82.82;100497.53;5026369;28;20144;-64
2023/02/23 11:29:18;;;;;;;37.15;21.13;;;;;;;9.41;83.37;100493.44;5022402;28;20136;-64
2023/02/23 11:31:56;;;;;;;33.75;19.88;;;;;;;9.60;83.22;100487.09;5041884;28;20052;-63
2023/02/23 11:34:32;;;;;;;38.10;21.30;;;;;;;9.80;82.54;100479.81;5029898;28;20288;-62
2023/02/23 11:37:01;;;;;;;;;;;;;;;10.02;82.10;100482.91;5022828;28;20069;-63
2023/02/23 11:39:28;;;;;;;45.70;21.80;;;;;;;10.22;81.71;100483.50;5026567;28;19932;-63
2023/02/23 11:42:13;;;;;;;36.83;21.75;;;;;;;10.32;80.70;100476.78;5024086;28;20050;-63
2023/02/23 11:44:41;;;;;;;41.30;20.93;;;;;;;10.43;80.65;100482.25;5031347;28;20126;-62
2023/02/23 11:47:20;;;;;;;37.97;20.02;;;;;;;10.36;79.55;100473.88;5028694;28;20054;-63
2023/02/23 11:49:48;;;;;;;34.08;19.73;;;;;;;10.45;80.15;100471.63;5019266;28;20053;-63
2023/02/23 11:52:18;;;;;;;37.45;20.95;;;;;;;10.56;79.77;100469.19;5019540;28;20055;-62
2023/02/23 11:54:57;;;;;;;36.30;19.92;;;;;;;10.59;79.06;100458.47;5033088;28;20046;-62
2023/02/23 11:57:29;;;;;;;37.95;20.13;;;;;;;10.76;79.28;100454.78;5026909;28;20061;-64
2023/02/23 11:59:59;;;;;;;41.28;21.27;;;;;;;10.81;78.69;100452.72;5015911;28;20065;-63
2023/02/23 12:02:28;;;;;;;31.58;20.40;;;;;;;10.93;79.31;100451.09;5020221;28;20045;-63
2023/02/23 12:05:04;;;;;;;33.08;20.45;;;;;;;11.06;78.59;100447.59;5033099;28;20587;-62
2023/02/23 12:07:40;;;;;;;35.05;20.05;;;;;;;11.25;77.57;100449.03;5019659;28;20058;-63
2023/02/23 12:10:22;;;;;;;39.40;21.90;;;;;;;11.52;77.11;100443.75;5032558;28;20497;-63
2023/02/23 12:12:59;;;;;;;34.22;20.02;;;;;;;11.75;76.72;100439.59;5026543;28;20407;-62
2023/02/23 12:15:47;;;;;;;37.60;20.77;;;;;;;11.94;74.85;100445.38;5028606;28;20041;-62
2023/02/23 12:18:21;;;;;;;39.25;20.83;;;;;;;12.11;74.65;100444.22;5022095;28;20053;-63
2023/02/23 12:20:53;;;;;;;36.00;19.80;;;;;;;12.13;73.08;100443.19;5040716;28;20135;-63
2023/02/23 12:23:29;;;;;;;37.05;19.42;;;;;;;12.22;74.10;100436.44;5036797;28;20053;-63
2023/02/23 12:26:00;;;;;;;32.85;19.50;;;;;;;12.42;74.93;100445.59;5030797;28;20446;-63
2023/02/23 12:28:35;;;;;;;36.17;21.65;;;;;;;12.39;73.81;100443.19;5028035;28;20049;-64
2023/02/23 12:31:27;;;;;;;42.38;22.33;;;;;;;12.27;72.26;100436.09;5035959;28;20053;-63
2023/02/23 12:33:59;;;;;;;34.13;20.08;;;;;;;12.20;73.44;100435.66;5018052;28;20052;-63
2023/02/23 12:36:39;;;;;;;36.25;20.65;;;;;;;12.19;72.56;100430.50;5030082;28;20056;-63
2023/02/23 12:39:29;;;;;;;35.22;19.95;;;;;;;12.34;73.92;100429.47;5023993;28;20110;-63
2023/02/23 12:41:56;;;;;;;35.50;19.83;;;;;;;12.49;73.40;100431.03;5015314;28;20042;-64
2023/02/23 12:44:34;;;;;;;38.53;22.00;;;;;;;12.50;73.77;100430.06;5024377;28;20055;-61
2023/02/23 12:47:08;;;;;;;44.85;20.98;;;;;;;12.42;71.88;100432.41;5020801;28;20060;-63
2023/02/23 12:49:43;;;;;;;35.72;20.10;;;;;;;12.54;75.60;100431.53;5014583;28;20132;-63
2023/02/23 12:52:16;;;;;;;31.23;19.52;;;;;;;12.50;72.98;100431.88;5018195;28;20053;-63
2023/02/23 12:54:45;;;;;;;33.17;19.55;;;;;;;12.38;72.81;100430.91;5024639;28;20046;-62
2023/02/23 12:57:31;;;;;;;38.22;21.17;;;;;;;12.33;72.92;100420.69;5030522;28;20081;-60